METAR Data
IDs: Format: Raw Decoded Include TAF

Data at: 2046 UTC 31 Jan 2023

EGBB 312020Z 26011KT CAVOK 07/01 Q1023

EGBJ 311750Z 25007KT 9999 FEW024 07/02 Q1025

EGVN 312020Z 21003KT 9999 FEW045 04/M00 Q1025 NOSIG RMK BLU BLU

EGTK 312020Z 24007KT CAVOK 03/M00 Q1024

No METAR found for EGWC

EGTC 311850Z 24009KT 9999 FEW046 05/00 Q1024

EGNX 312020Z 24015KT CAVOK 06/00 Q1021